sensor_id;sensor_type;location;lat;lon;timestamp;pressure;altitude;pressure_sealevel;temperature;humidity
27202;BME280;14717;46.924;15.474;2023-04-20T00:01:39;97789.94;;;9.04;100.00
27202;BME280;14717;46.924;15.474;2023-04-20T00:04:05;97788.09;;;8.90;100.00
27202;BME280;14717;46.924;15.474;2023-04-20T00:06:30;97783.09;;;8.96;100.00
27202;BME280;14717;46.924;15.474;2023-04-20T00:08:57;97785.59;;;8.93;100.00
27202;BME280;14717;46.924;15.474;2023-04-20T00:11:22;97786.44;;;8.89;100.00
27202;BME280;14717;46.924;15.474;2023-04-20T00:13:48;97787.28;;;8.89;100.00
27202;BME280;14717;46.924;15.474;2023-04-20T00:16:13;97781.81;;;8.79;100.00
27202;BME280;14717;46.924;15.474;2023-04-20T00:18:39;97782.69;;;8.70;99.86
27202;BME280;14717;46.924;15.474;2023-04-20T00:21:05;97777.44;;;8.73;99.93
27202;BME280;14717;46.924;15.474;2023-04-20T00:23:30;97772.25;;;8.62;100.00
27202;BME280;14717;46.924;15.474;2023-04-20T00:25:56;97761.78;;;8.64;100.00
27202;BME280;14717;46.924;15.474;2023-04-20T00:28:21;97769.16;;;8.78;100.00
27202;BME280;14717;46.924;15.474;2023-04-20T00:30:46;97764.31;;;8.55;100.00
27202;BME280;14717;46.924;15.474;2023-04-20T00:33:12;97772.50;;;8.70;100.00
27202;BME280;14717;46.924;15.474;2023-04-20T00:35:37;97763.97;;;8.67;100.00
27202;BME280;14717;46.924;15.474;2023-04-20T00:38:03;97761.19;;;8.72;100.00
27202;BME280;14717;46.924;15.474;2023-04-20T00:40:28;97757.88;;;8.75;100.00
27202;BME280;14717;46.924;15.474;2023-04-20T00:42:53;97763.91;;;8.77;100.00
27202;BME280;14717;46.924;15.474;2023-04-20T00:45:19;97761.69;;;8.79;100.00
27202;BME280;14717;46.924;15.474;2023-04-20T00:47:46;97758.09;;;8.83;100.00
27202;BME280;14717;46.924;15.474;2023-04-20T00:50:12;97757.28;;;8.83;100.00
27202;BME280;14717;46.924;15.474;2023-04-20T00:52:37;97756.28;;;8.64;99.46
27202;BME280;14717;46.924;15.474;2023-04-20T00:55:04;97752.69;;;8.68;100.00
27202;BME280;14717;46.924;15.474;2023-04-20T00:57:30;97749.69;;;8.60;100.00
27202;BME280;14717;46.924;15.474;2023-04-20T00:59:56;97752.97;;;8.67;100.00
27202;BME280;14717;46.924;15.474;2023-04-20T01:02:21;97747.50;;;8.57;100.00
27202;BME280;14717;46.924;15.474;2023-04-20T01:04:47;97746.69;;;8.56;100.00
27202;BME280;14717;46.924;15.474;2023-04-20T01:07:12;97749.16;;;8.58;100.00
27202;BME280;14717;46.924;15.474;2023-04-20T01:09:38;97747.28;;;8.48;100.00
27202;BME280;14717;46.924;15.474;2023-04-20T01:12:04;97745.09;;;8.41;100.00
27202;BME280;14717;46.924;15.474;2023-04-20T01:14:30;97750.72;;;8.11;100.00
27202;BME280;14717;46.924;15.474;2023-04-20T01:16:55;97747.72;;;7.98;100.00
27202;BME280;14717;46.924;15.474;2023-04-20T01:19:21;97738.63;;;8.07;100.00
27202;BME280;14717;46.924;15.474;2023-04-20T01:21:46;97735.59;;;8.04;100.00
27202;BME280;14717;46.924;15.474;2023-04-20T01:24:12;97743.31;;;7.92;100.00
27202;BME280;14717;46.924;15.474;2023-04-20T01:26:38;97738.38;;;7.94;100.00
27202;BME280;14717;46.924;15.474;2023-04-20T01:29:03;97744.41;;;8.01;100.00
27202;BME280;14717;46.924;15.474;2023-04-20T01:31:29;97738.91;;;8.01;100.00
27202;BME280;14717;46.924;15.474;2023-04-20T01:33:55;97744.13;;;8.07;100.00
27202;BME280;14717;46.924;15.474;2023-04-20T01:36:20;97736.13;;;8.05;100.00
27202;BME280;14717;46.924;15.474;2023-04-20T01:38:46;97736.69;;;8.03;100.00
27202;BME280;14717;46.924;15.474;2023-04-20T01:41:11;97740.53;;;8.02;100.00
27202;BME280;14717;46.924;15.474;2023-04-20T01:43:37;97742.72;;;8.04;100.00
27202;BME280;14717;46.924;15.474;2023-04-20T01:46:03;97733.91;;;8.07;100.00
27202;BME280;14717;46.924;15.474;2023-04-20T01:48:29;97733.38;;;8.20;100.00
27202;BME280;14717;46.924;15.474;2023-04-20T01:50:54;97737.22;;;8.19;100.00
27202;BME280;14717;46.924;15.474;2023-04-20T01:53:19;97730.06;;;8.18;100.00
27202;BME280;14717;46.924;15.474;2023-04-20T01:55:46;97730.84;;;8.29;100.00
27202;BME280;14717;46.924;15.474;2023-04-20T01:58:11;97727.53;;;8.32;100.00
27202;BME280;14717;46.924;15.474;2023-04-20T02:00:36;97727.59;;;8.22;100.00
27202;BME280;14717;46.924;15.474;2023-04-20T02:03:02;97727.28;;;8.28;100.00
27202;BME280;14717;46.924;15.474;2023-04-20T02:05:27;97725.06;;;8.30;100.00
27202;BME280;14717;46.924;15.474;2023-04-20T02:07:52;97717.63;;;8.31;100.00
27202;BME280;14717;46.924;15.474;2023-04-20T02:10:18;97722.03;;;8.32;100.00
27202;BME280;14717;46.924;15.474;2023-04-20T02:12:43;97723.38;;;8.39;100.00
27202;BME280;14717;46.924;15.474;2023-04-20T02:15:09;97724.75;;;8.42;100.00
27202;BME280;14717;46.924;15.474;2023-04-20T02:17:34;97722.31;;;8.30;100.00
27202;BME280;14717;46.924;15.474;2023-04-20T02:20:03;97726.72;;;8.26;100.00
27202;BME280;14717;46.924;15.474;2023-04-20T02:22:33;97725.88;;;8.31;100.00
27202;BME280;14717;46.924;15.474;2023-04-20T02:24:59;97735.53;;;8.28;100.00
27202;BME280;14717;46.924;15.474;2023-04-20T02:27:26;97727.31;;;8.23;99.66
27202;BME280;14717;46.924;15.474;2023-04-20T02:29:51;97724.59;;;8.08;99.65
27202;BME280;14717;46.924;15.474;2023-04-20T02:32:16;97727.66;;;7.87;99.57
27202;BME280;14717;46.924;15.474;2023-04-20T02:34:42;97733.41;;;8.01;100.00
27202;BME280;14717;46.924;15.474;2023-04-20T02:37:07;97729.53;;;8.11;100.00
27202;BME280;14717;46.924;15.474;2023-04-20T02:39:32;97729.53;;;8.02;99.93
27202;BME280;14717;46.924;15.474;2023-04-20T02:41:58;97726.31;;;7.80;100.00
27202;BME280;14717;46.924;15.474;2023-04-20T02:44:23;97722.22;;;7.72;100.00
27202;BME280;14717;46.924;15.474;2023-04-20T02:46:48;97722.47;;;7.71;100.00
27202;BME280;14717;46.924;15.474;2023-04-20T02:49:14;97723.84;;;7.73;100.00
27202;BME280;14717;46.924;15.474;2023-04-20T02:51:39;97726.31;;;7.80;100.00
27202;BME280;14717;46.924;15.474;2023-04-20T02:54:05;97719.97;;;7.79;100.00
27202;BME280;14717;46.924;15.474;2023-04-20T02:56:30;97713.94;;;7.82;100.00
27202;BME280;14717;46.924;15.474;2023-04-20T02:58:55;97718.03;;;7.85;100.00
27202;BME280;14717;46.924;15.474;2023-04-20T03:01:21;97718.03;;;7.90;100.00
27202;BME280;14717;46.924;15.474;2023-04-20T03:03:46;97718.00;;;7.95;100.00
27202;BME280;14717;46.924;15.474;2023-04-20T03:06:11;97719.66;;;7.96;100.00
27202;BME280;14717;46.924;15.474;2023-04-20T03:08:37;97718.00;;;8.00;100.00
27202;BME280;14717;46.924;15.474;2023-04-20T03:11:02;97714.94;;;8.06;100.00
27202;BME280;14717;46.924;15.474;2023-04-20T03:13:28;97715.19;;;8.19;100.00
27202;BME280;14717;46.924;15.474;2023-04-20T03:15:54;97713.50;;;8.33;100.00
27202;BME280;14717;46.924;15.474;2023-04-20T03:18:19;97715.09;;;8.39;100.00
27202;BME280;14717;46.924;15.474;2023-04-20T03:20:45;97710.13;;;8.41;100.00
27202;BME280;14717;46.924;15.474;2023-04-20T03:23:10;97709.59;;;8.39;100.00
27202;BME280;14717;46.924;15.474;2023-04-20T03:25:36;97717.31;;;8.42;100.00
27202;BME280;14717;46.924;15.474;2023-04-20T03:28:01;97711.25;;;8.40;100.00
27202;BME280;14717;46.924;15.474;2023-04-20T03:30:26;97721.16;;;8.36;100.00
27202;BME280;14717;46.924;15.474;2023-04-20T03:32:52;97716.25;;;8.33;100.00
27202;BME280;14717;46.924;15.474;2023-04-20T03:35:24;97709.06;;;8.37;100.00
27202;BME280;14717;46.924;15.474;2023-04-20T03:37:49;97712.97;;;8.21;100.00
27202;BME280;14717;46.924;15.474;2023-04-20T03:40:15;97724.00;;;8.16;100.00
27202;BME280;14717;46.924;15.474;2023-04-20T03:42:40;97721.00;;;8.13;100.00
27202;BME280;14717;46.924;15.474;2023-04-20T03:45:06;97728.97;;;8.14;100.00
27202;BME280;14717;46.924;15.474;2023-04-20T03:47:31;97711.34;;;8.20;100.00
27202;BME280;14717;46.924;15.474;2023-04-20T03:49:57;97709.41;;;8.21;100.00
27202;BME280;14717;46.924;15.474;2023-04-20T03:52:22;97717.97;;;8.09;100.00
27202;BME280;14717;46.924;15.474;2023-04-20T03:54:48;97716.38;;;7.94;100.00
27202;BME280;14717;46.924;15.474;2023-04-20T03:57:13;97725.97;;;7.96;100.00
27202;BME280;14717;46.924;15.474;2023-04-20T03:59:38;97731.72;;;8.14;100.00
27202;BME280;14717;46.924;15.474;2023-04-20T04:02:04;97733.38;;;8.15;100.00
27202;BME280;14717;46.924;15.474;2023-04-20T04:04:30;97727.88;;;8.20;100.00
27202;BME280;14717;46.924;15.474;2023-04-20T04:06:55;97734.47;;;8.19;100.00
27202;BME280;14717;46.924;15.474;2023-04-20T04:09:20;97733.66;;;8.14;100.00
27202;BME280;14717;46.924;15.474;2023-04-20T04:11:46;97740.53;;;8.02;100.00
27202;BME280;14717;46.924;15.474;2023-04-20T04:14:12;97735.03;;;8.02;100.00
27202;BME280;14717;46.924;15.474;2023-04-20T04:16:37;97741.09;;;8.08;100.00
27202;BME280;14717;46.924;15.474;2023-04-20T04:19:02;97733.63;;;8.24;100.00
27202;BME280;14717;46.924;15.474;2023-04-20T04:21:28;97738.28;;;8.28;100.00
27202;BME280;14717;46.924;15.474;2023-04-20T04:23:53;97733.31;;;8.30;100.00
27202;BME280;14717;46.924;15.474;2023-04-20T04:26:19;97735.25;;;8.30;100.00
27202;BME280;14717;46.924;15.474;2023-04-20T04:28:49;97739.72;;;8.11;100.00
27202;BME280;14717;46.924;15.474;2023-04-20T04:31:15;97730.63;;;8.20;100.00
27202;BME280;14717;46.924;15.474;2023-04-20T04:33:41;97730.06;;;8.18;100.00
27202;BME280;14717;46.924;15.474;2023-04-20T04:36:07;97735.56;;;8.18;100.00
27202;BME280;14717;46.924;15.474;2023-04-20T04:38:32;97733.31;;;8.30;100.00
27202;BME280;14717;46.924;15.474;2023-04-20T04:40:58;97731.41;;;8.26;99.78
27202;BME280;14717;46.924;15.474;2023-04-20T04:43:23;97738.81;;;8.30;99.89
27202;BME280;14717;46.924;15.474;2023-04-20T04:45:49;97747.34;;;8.34;100.00
27202;BME280;14717;46.924;15.474;2023-04-20T04:48:15;97741.50;;;8.45;100.00
27202;BME280;14717;46.924;15.474;2023-04-20T04:50:40;97753.59;;;8.49;100.00
27202;BME280;14717;46.924;15.474;2023-04-20T04:53:06;97747.53;;;8.52;100.00
27202;BME280;14717;46.924;15.474;2023-04-20T04:55:32;97745.84;;;8.56;100.00
27202;BME280;14717;46.924;15.474;2023-04-20T04:57:57;97751.34;;;8.56;99.38
27202;BME280;14717;46.924;15.474;2023-04-20T05:00:23;97759.63;;;8.56;99.12
27202;BME280;14717;46.924;15.474;2023-04-20T05:02:49;97760.19;;;8.58;99.33
27202;BME280;14717;46.924;15.474;2023-04-20T05:05:17;97763.44;;;8.65;99.38
27202;BME280;14717;46.924;15.474;2023-04-20T05:07:42;97768.94;;;8.65;99.62
27202;BME280;14717;46.924;15.474;2023-04-20T05:10:08;97757.41;;;8.63;98.11
27202;BME280;14717;46.924;15.474;2023-04-20T05:12:33;97766.16;;;8.70;97.81
27202;BME280;14717;46.924;15.474;2023-04-20T05:14:58;97763.38;;;8.75;97.41
27202;BME280;14717;46.924;15.474;2023-04-20T05:17:24;97765.56;;;8.78;97.01
27202;BME280;14717;46.924;15.474;2023-04-20T05:19:49;97767.22;;;8.79;96.26
27202;BME280;14717;46.924;15.474;2023-04-20T05:22:15;97771.63;;;8.80;95.90
27202;BME280;14717;46.924;15.474;2023-04-20T05:24:40;97772.69;;;8.84;96.70
27202;BME280;14717;46.924;15.474;2023-04-20T05:27:07;97774.03;;;8.91;97.36
27202;BME280;14717;46.924;15.474;2023-04-20T05:29:32;97773.47;;;8.94;97.01
27202;BME280;14717;46.924;15.474;2023-04-20T05:31:57;97782.00;;;8.97;96.80
27202;BME280;14717;46.924;15.474;2023-04-20T05:34:23;97784.81;;;8.88;95.65
27202;BME280;14717;46.924;15.474;2023-04-20T05:36:48;97779.22;;;8.97;96.11
27202;BME280;14717;46.924;15.474;2023-04-20T05:39:13;97785.88;;;8.91;95.77
27202;BME280;14717;46.924;15.474;2023-04-20T05:41:39;97783.97;;;8.87;95.60
27202;BME280;14717;46.924;15.474;2023-04-20T05:44:04;97791.09;;;8.93;97.18
27202;BME280;14717;46.924;15.474;2023-04-20T05:46:30;97791.53;;;9.10;96.82
27202;BME280;14717;46.924;15.474;2023-04-20T05:48:55;97788.50;;;9.11;95.05
27202;BME280;14717;46.924;15.474;2023-04-20T05:51:21;97793.94;;;9.21;94.79
27202;BME280;14717;46.924;15.474;2023-04-20T05:53:46;97787.19;;;9.04;94.10
27202;BME280;14717;46.924;15.474;2023-04-20T05:56:12;97784.25;;;8.91;95.32
27202;BME280;14717;46.924;15.474;2023-04-20T05:58:39;97782.56;;;8.90;96.02
27202;BME280;14717;46.924;15.474;2023-04-20T06:01:05;97789.91;;;9.09;95.04
27202;BME280;14717;46.924;15.474;2023-04-20T06:03:31;97781.75;;;9.32;95.24
27202;BME280;14717;46.924;15.474;2023-04-20T06:05:56;97786.63;;;9.45;90.68
27202;BME280;14717;46.924;15.474;2023-04-20T06:08:22;97780.53;;;9.43;92.40
27202;BME280;14717;46.924;15.474;2023-04-20T06:10:47;97782.94;;;9.54;92.12
27202;BME280;14717;46.924;15.474;2023-04-20T06:13:12;97784.00;;;9.91;91.49
27202;BME280;14717;46.924;15.474;2023-04-20T06:15:38;97786.34;;;10.08;89.45
27202;BME280;14717;46.924;15.474;2023-04-20T06:18:03;97783.19;;;10.19;88.47
27202;BME280;14717;46.924;15.474;2023-04-20T06:20:29;97793.09;;;10.20;88.58
27202;BME280;14717;46.924;15.474;2023-04-20T06:22:54;97790.72;;;10.37;88.18
27202;BME280;14717;46.924;15.474;2023-04-20T06:25:20;97791.94;;;10.49;86.87
27202;BME280;14717;46.924;15.474;2023-04-20T06:27:45;97791.88;;;10.54;88.07
27202;BME280;14717;46.924;15.474;2023-04-20T06:30:12;97794.69;;;10.72;85.03
27202;BME280;14717;46.924;15.474;2023-04-20T06:32:37;97794.47;;;10.69;82.12
27202;BME280;14717;46.924;15.474;2023-04-20T06:35:03;97790.94;;;11.05;82.56
27202;BME280;14717;46.924;15.474;2023-04-20T06:37:29;97790.69;;;10.83;80.37
27202;BME280;14717;46.924;15.474;2023-04-20T06:39:54;97801.78;;;11.20;80.79
27202;BME280;14717;46.924;15.474;2023-04-20T06:42:20;97806.94;;;11.45;79.49
27202;BME280;14717;46.924;15.474;2023-04-20T06:44:46;97801.72;;;11.25;75.14
27202;BME280;14717;46.924;15.474;2023-04-20T06:47:11;97798.72;;;11.40;76.88
27202;BME280;14717;46.924;15.474;2023-04-20T06:49:36;97790.66;;;11.43;78.45
27202;BME280;14717;46.924;15.474;2023-04-20T06:52:04;97792.09;;;10.81;76.11
27202;BME280;14717;46.924;15.474;2023-04-20T06:54:29;97797.00;;;11.25;78.83
27202;BME280;14717;46.924;15.474;2023-04-20T06:56:54;97797.63;;;11.41;75.62
27202;BME280;14717;46.924;15.474;2023-04-20T06:59:20;97792.56;;;11.48;78.29
27202;BME280;14717;46.924;15.474;2023-04-20T07:01:45;97792.06;;;11.77;77.34
27202;BME280;14717;46.924;15.474;2023-04-20T07:04:11;97804.34;;;11.35;75.31
27202;BME280;14717;46.924;15.474;2023-04-20T07:06:36;97795.03;;;11.49;77.90
27202;BME280;14717;46.924;15.474;2023-04-20T07:09:01;97806.81;;;11.36;75.88
27202;BME280;14717;46.924;15.474;2023-04-20T07:11:28;97804.38;;;11.85;74.63
27202;BME280;14717;46.924;15.474;2023-04-20T07:13:53;97795.41;;;12.24;71.43
27202;BME280;14717;46.924;15.474;2023-04-20T07:16:18;97793.44;;;12.25;69.87
27202;BME280;14717;46.924;15.474;2023-04-20T07:18:44;97800.81;;;11.84;69.41
27202;BME280;14717;46.924;15.474;2023-04-20T07:21:09;97806.00;;;11.72;69.96
27202;BME280;14717;46.924;15.474;2023-04-20T07:23:35;97804.28;;;12.08;74.03
27202;BME280;14717;46.924;15.474;2023-04-20T07:26:00;97805.81;;;12.59;71.27
27202;BME280;14717;46.924;15.474;2023-04-20T07:28:25;97802.75;;;12.87;69.03
27202;BME280;14717;46.924;15.474;2023-04-20T07:30:51;97804.16;;;12.98;70.03
27202;BME280;14717;46.924;15.474;2023-04-20T07:33:16;97805.38;;;13.18;67.90
27202;BME280;14717;46.924;15.474;2023-04-20T07:35:41;97813.09;;;13.21;67.30
27202;BME280;14717;46.924;15.474;2023-04-20T07:38:07;97808.28;;;13.14;69.67
27202;BME280;14717;46.924;15.474;2023-04-20T07:40:32;97816.25;;;13.28;66.98
27202;BME280;14717;46.924;15.474;2023-04-20T07:42:58;97808.25;;;13.27;63.18
27202;BME280;14717;46.924;15.474;2023-04-20T07:45:23;97814.19;;;13.34;64.29
27202;BME280;14717;46.924;15.474;2023-04-20T07:47:48;97812.47;;;13.24;64.35
27202;BME280;14717;46.924;15.474;2023-04-20T07:50:15;97811.94;;;13.22;61.95
27202;BME280;14717;46.924;15.474;2023-04-20T07:52:41;97805.28;;;13.23;62.65
27202;BME280;14717;46.924;15.474;2023-04-20T07:55:09;97806.91;;;12.71;65.19
27202;BME280;14717;46.924;15.474;2023-04-20T07:57:36;97807.72;;;12.72;65.26
27202;BME280;14717;46.924;15.474;2023-04-20T08:00:02;97804.56;;;13.18;66.17
27202;BME280;14717;46.924;15.474;2023-04-20T08:02:31;97808.56;;;13.25;63.11
27202;BME280;14717;46.924;15.474;2023-04-20T08:04:57;97803.69;;;13.44;63.66
27202;BME280;14717;46.924;15.474;2023-04-20T08:07:22;97802.78;;;13.70;64.24
27202;BME280;14717;46.924;15.474;2023-04-20T08:09:48;97814.91;;;13.96;60.67
27202;BME280;14717;46.924;15.474;2023-04-20T08:12:13;97806.34;;;14.06;57.22
27202;BME280;14717;46.924;15.474;2023-04-20T08:14:39;97806.81;;;14.21;57.39
27202;BME280;14717;46.924;15.474;2023-04-20T08:17:05;97805.88;;;14.34;56.84
27202;BME280;14717;46.924;15.474;2023-04-20T08:19:30;97798.56;;;14.38;55.30
27202;BME280;14717;46.924;15.474;2023-04-20T08:21:56;97803.00;;;14.78;64.46
27202;BME280;14717;46.924;15.474;2023-04-20T08:24:21;97789.31;;;14.89;62.64
27202;BME280;14717;46.924;15.474;2023-04-20T08:26:46;97799.00;;;14.62;65.12
27202;BME280;14717;46.924;15.474;2023-04-20T08:29:12;97789.19;;;14.56;61.60
27202;BME280;14717;46.924;15.474;2023-04-20T08:31:37;97793.69;;;14.44;60.66
27202;BME280;14717;46.924;15.474;2023-04-20T08:34:03;97799.00;;;14.32;58.75
27202;BME280;14717;46.924;15.474;2023-04-20T08:36:28;97795.16;;;14.41;60.31
27202;BME280;14717;46.924;15.474;2023-04-20T08:39:08;97793.88;;;14.86;60.37
27202;BME280;14717;46.924;15.474;2023-04-20T08:41:34;97798.53;;;14.68;59.79
27202;BME280;14717;46.924;15.474;2023-04-20T08:44:00;97800.22;;;14.17;57.38
27202;BME280;14717;46.924;15.474;2023-04-20T08:46:25;97797.72;;;14.07;59.74
27202;BME280;14717;46.924;15.474;2023-04-20T08:48:52;97793.44;;;13.88;58.26
27202;BME280;14717;46.924;15.474;2023-04-20T08:51:20;97796.63;;;13.60;60.00
27202;BME280;14717;46.924;15.474;2023-04-20T08:53:45;97797.38;;;13.65;62.42
27202;BME280;14717;46.924;15.474;2023-04-20T08:56:10;97803.78;;;13.53;60.59
27202;BME280;14717;46.924;15.474;2023-04-20T08:58:36;97803.47;;;13.76;61.65
27202;BME280;14717;46.924;15.474;2023-04-20T09:01:07;97794.28;;;13.89;60.68
27202;BME280;14717;46.924;15.474;2023-04-20T09:03:33;97800.25;;;13.61;63.85
27202;BME280;14717;46.924;15.474;2023-04-20T09:05:58;97796.78;;;13.77;61.30
27202;BME280;14717;46.924;15.474;2023-04-20T09:08:34;97795.59;;;14.35;61.73
27202;BME280;14717;46.924;15.474;2023-04-20T09:10:59;97801.06;;;14.48;61.29
27202;BME280;14717;46.924;15.474;2023-04-20T09:13:24;97796.94;;;14.67;60.54
27202;BME280;14717;46.924;15.474;2023-04-20T09:15:50;97796.72;;;14.34;62.12
27202;BME280;14717;46.924;15.474;2023-04-20T09:18:15;97802.06;;;14.52;61.72
27202;BME280;14717;46.924;15.474;2023-04-20T09:20:41;97796.94;;;14.67;59.94
27202;BME280;14717;46.924;15.474;2023-04-20T09:23:17;97799.88;;;14.71;60.17
27202;BME280;14717;46.924;15.474;2023-04-20T09:25:44;97801.81;;;14.70;59.80
27202;BME280;14717;46.924;15.474;2023-04-20T09:28:12;97805.88;;;14.56;61.60
27202;BME280;14717;46.924;15.474;2023-04-20T09:30:44;97797.28;;;14.44;60.34
27202;BME280;14717;46.924;15.474;2023-04-20T09:33:10;97809.44;;;14.26;61.60
27202;BME280;14717;46.924;15.474;2023-04-20T09:35:37;97801.00;;;14.70;60.80
27202;BME280;14717;46.924;15.474;2023-04-20T09:38:05;97794.53;;;14.52;58.61
27202;BME280;14717;46.924;15.474;2023-04-20T09:40:31;97798.00;;;14.28;60.51
27202;BME280;14717;46.924;15.474;2023-04-20T09:42:59;97797.00;;;14.54;58.63
27202;BME280;14717;46.924;15.474;2023-04-20T09:45:27;97797.63;;;14.81;59.48
27202;BME280;14717;46.924;15.474;2023-04-20T09:47:53;97793.06;;;14.93;59.90
27202;BME280;14717;46.924;15.474;2023-04-20T09:50:20;97790.00;;;15.03;58.64
27202;BME280;14717;46.924;15.474;2023-04-20T09:52:45;97796.63;;;14.77;57.99
27202;BME280;14717;46.924;15.474;2023-04-20T09:55:13;97795.13;;;14.71;57.52
27202;BME280;14717;46.924;15.474;2023-04-20T09:57:39;97786.34;;;14.86;58.19
27202;BME280;14717;46.924;15.474;2023-04-20T10:00:06;97788.63;;;15.23;58.76
27202;BME280;14717;46.924;15.474;2023-04-20T10:02:32;97789.66;;;15.35;56.68
27202;BME280;14717;46.924;15.474;2023-04-20T10:04:58;97787.81;;;15.22;56.78
27202;BME280;14717;46.924;15.474;2023-04-20T10:07:27;97783.59;;;15.67;60.25
27202;BME280;14717;46.924;15.474;2023-04-20T10:12:29;97786.75;;;15.10;58.22
27202;BME280;14717;46.924;15.474;2023-04-20T10:14:55;97790.47;;;15.44;57.41
27202;BME280;14717;46.924;15.474;2023-04-20T10:17:29;97789.34;;;15.62;58.29
27202;BME280;14717;46.924;15.474;2023-04-20T10:19:55;97787.03;;;15.72;56.52
27202;BME280;14717;46.924;15.474;2023-04-20T10:22:29;97792.63;;;15.97;55.51
27202;BME280;14717;46.924;15.474;2023-04-20T10:24:59;97793.44;;;15.00;56.52
27202;BME280;14717;46.924;15.474;2023-04-20T10:27:25;97789.47;;;14.85;55.75
27202;BME280;14717;46.924;15.474;2023-04-20T10:29:51;97793.78;;;15.07;58.73
27202;BME280;14717;46.924;15.474;2023-04-20T10:32:27;97787.53;;;15.57;55.86
27202;BME280;14717;46.924;15.474;2023-04-20T10:35:08;97782.75;;;15.32;57.06
27202;BME280;14717;46.924;15.474;2023-04-20T10:37:34;97779.97;;;15.41;58.23
27202;BME280;14717;46.924;15.474;2023-04-20T10:40:00;97787.34;;;15.79;55.74
27202;BME280;14717;46.924;15.474;2023-04-20T10:42:25;97783.59;;;15.58;55.07
27202;BME280;14717;46.924;15.474;2023-04-20T10:44:51;97779.69;;;15.68;53.73
27202;BME280;14717;46.924;15.474;2023-04-20T10:47:25;97776.72;;;15.56;54.75
27202;BME280;14717;46.924;15.474;2023-04-20T10:49:51;97770.81;;;15.66;55.65
27202;BME280;14717;46.924;15.474;2023-04-20T10:52:16;97770.50;;;15.92;56.13
27202;BME280;14717;46.924;15.474;2023-04-20T10:54:41;97777.69;;;15.93;54.94
27202;BME280;14717;46.924;15.474;2023-04-20T10:57:06;97768.66;;;16.21;55.04
27202;BME280;14717;46.924;15.474;2023-04-20T10:59:32;97768.50;;;16.10;53.58
27202;BME280;14717;46.924;15.474;2023-04-20T11:02:06;97774.25;;;16.05;54.03
27202;BME280;14717;46.924;15.474;2023-04-20T11:04:32;97765.09;;;15.87;55.77
27202;BME280;14717;46.924;15.474;2023-04-20T11:07:05;97765.69;;;16.18;55.80
27202;BME280;14717;46.924;15.474;2023-04-20T11:09:32;97772.78;;;15.90;54.97
27202;BME280;14717;46.924;15.474;2023-04-20T11:12:03;97769.19;;;16.23;56.72
27202;BME280;14717;46.924;15.474;2023-04-20T11:14:37;97764.53;;;16.36;54.84
27202;BME280;14717;46.924;15.474;2023-04-20T11:17:03;97769.50;;;16.22;55.24
27202;BME280;14717;46.924;15.474;2023-04-20T11:19:30;97757.47;;;16.47;53.85
27202;BME280;14717;46.924;15.474;2023-04-20T11:21:56;97754.34;;;16.40;53.82
27202;BME280;14717;46.924;15.474;2023-04-20T11:24:23;97752.66;;;16.56;54.39
27202;BME280;14717;46.924;15.474;2023-04-20T11:26:50;97760.19;;;16.63;56.61
27202;BME280;14717;46.924;15.474;2023-04-20T11:29:35;97763.56;;;16.77;53.95
27202;BME280;14717;46.924;15.474;2023-04-20T11:32:06;97756.84;;;16.78;52.95
27202;BME280;14717;46.924;15.474;2023-04-20T11:34:33;97753.25;;;16.78;53.14
27202;BME280;14717;46.924;15.474;2023-04-20T11:37:07;97749.13;;;16.75;53.03
27202;BME280;14717;46.924;15.474;2023-04-20T11:39:33;97748.81;;;16.77;53.70
27202;BME280;14717;46.924;15.474;2023-04-20T11:41:59;97755.41;;;15.76;54.37
27202;BME280;14717;46.924;15.474;2023-04-20T11:44:24;97762.94;;;16.01;56.42
27202;BME280;14717;46.924;15.474;2023-04-20T11:46:51;97751.22;;;16.41;55.06
27202;BME280;14717;46.924;15.474;2023-04-20T11:49:19;97751.72;;;16.52;54.12
27202;BME280;14717;46.924;15.474;2023-04-20T11:51:46;97744.78;;;16.95;55.63
27202;BME280;14717;46.924;15.474;2023-04-20T11:54:12;97759.97;;;17.14;54.34
27202;BME280;14717;46.924;15.474;2023-04-20T11:56:37;97760.91;;;17.18;53.54
27202;BME280;14717;46.924;15.474;2023-04-20T11:59:03;97750.06;;;17.16;53.31
27202;BME280;14717;46.924;15.474;2023-04-20T12:01:29;97750.28;;;17.11;53.07
27202;BME280;14717;46.924;15.474;2023-04-20T12:03:54;97746.38;;;17.04;52.62
27202;BME280;14717;46.924;15.474;2023-04-20T12:06:20;97749.84;;;17.01;51.59
27202;BME280;14717;46.924;15.474;2023-04-20T12:08:45;97747.09;;;16.93;53.70
27202;BME280;14717;46.924;15.474;2023-04-20T12:11:12;97743.63;;;16.96;52.48
27202;BME280;14717;46.924;15.474;2023-04-20T12:13:38;97735.03;;;17.09;54.92
27202;BME280;14717;46.924;15.474;2023-04-20T12:16:03;97735.94;;;16.93;54.48
27202;BME280;14717;46.924;15.474;2023-04-20T12:18:29;97739.34;;;16.98;52.77
27202;BME280;14717;46.924;15.474;2023-04-20T12:20:54;97730.41;;;17.13;52.34
27202;BME280;14717;46.924;15.474;2023-04-20T12:23:19;97731.06;;;16.81;54.10
27202;BME280;14717;46.924;15.474;2023-04-20T12:25:45;97729.72;;;17.16;54.60
27202;BME280;14717;46.924;15.474;2023-04-20T12:28:10;97721.19;;;17.21;52.35
27202;BME280;14717;46.924;15.474;2023-04-20T12:30:36;97733.03;;;17.09;57.30
27202;BME280;14717;46.924;15.474;2023-04-20T12:33:01;97728.91;;;16.41;55.91
27202;BME280;14717;46.924;15.474;2023-04-20T12:35:27;97722.00;;;17.21;54.37
27202;BME280;14717;46.924;15.474;2023-04-20T12:37:53;97715.72;;;17.85;53.06
27202;BME280;14717;46.924;15.474;2023-04-20T12:40:18;97718.09;;;17.95;52.13
27202;BME280;14717;46.924;15.474;2023-04-20T12:42:44;97724.69;;;18.31;51.58
27202;BME280;14717;46.924;15.474;2023-04-20T12:45:09;97718.53;;;18.49;51.10
27202;BME280;14717;46.924;15.474;2023-04-20T12:47:35;97717.13;;;18.43;50.39